createdAt,value
2018-06-02T00:01:34.696Z,1009.7
2018-06-02T00:11:34.663Z,1009.65
2018-06-02T00:21:46.611Z,1009.65
2018-06-02T00:31:37.115Z,1009.72
2018-06-02T00:41:34.635Z,1009.75
2018-06-02T00:51:34.722Z,1009.66
2018-06-02T01:01:34.662Z,1009.6
2018-06-02T01:11:34.728Z,1009.59
2018-06-02T01:21:34.670Z,1009.56
2018-06-02T01:31:34.627Z,1009.56
2018-06-02T01:41:34.702Z,1009.61
2018-06-02T01:51:34.683Z,1009.65
2018-06-02T02:01:34.735Z,1009.59
2018-06-02T02:11:34.699Z,1009.54
2018-06-02T02:21:34.647Z,1009.47
2018-06-02T02:31:34.706Z,1009.5
2018-06-02T02:41:34.685Z,1009.54
2018-06-02T02:51:34.751Z,1009.56
2018-06-02T03:01:34.705Z,1009.59
2018-06-02T03:11:34.681Z,1009.72
2018-06-02T03:21:34.731Z,1009.75
2018-06-02T03:31:34.697Z,1009.77
2018-06-02T03:41:34.649Z,1009.81
2018-06-02T03:51:34.721Z,1009.85
2018-06-02T04:01:34.673Z,1009.9
2018-06-02T04:11:34.750Z,1009.87
2018-06-02T04:21:34.698Z,1010.01
2018-06-02T04:31:34.662Z,1010.06
2018-06-02T04:41:34.755Z,1010.05
2018-06-02T04:51:34.689Z,1010.1
2018-06-02T05:01:34.678Z,1010.19
2018-06-02T05:11:34.694Z,1010.17
2018-06-02T05:21:34.659Z,1010.23
2018-06-02T05:31:34.735Z,1010.4
2018-06-02T05:41:34.689Z,1010.35
2018-06-02T05:51:34.661Z,1010.46
2018-06-02T06:01:34.711Z,1010.44
2018-06-02T06:11:34.673Z,1010.41
2018-06-02T06:21:34.741Z,1010.38
2018-06-02T06:31:34.691Z,1010.46
2018-06-02T06:41:34.655Z,1010.51
2018-06-02T06:51:34.742Z,1010.56
2018-06-02T07:01:34.689Z,1010.59
2018-06-02T07:11:34.659Z,1010.61
2018-06-02T07:21:34.678Z,1010.71
2018-06-02T07:31:34.733Z,1010.75
2018-06-02T07:41:34.693Z,1010.8
2018-06-02T07:51:35.898Z,1010.78
2018-06-02T08:01:34.721Z,1010.76
2018-06-02T08:11:34.659Z,1010.71
2018-06-02T08:21:34.756Z,1010.73
2018-06-02T08:31:34.703Z,1010.74
2018-06-02T08:41:34.673Z,1010.83
2018-06-02T08:51:34.726Z,1010.85
2018-06-02T09:01:34.672Z,1010.9
2018-06-02T09:11:38.758Z,1010.95
2018-06-02T09:21:34.692Z,1010.99
2018-06-02T09:31:34.667Z,1010.96
2018-06-02T09:41:34.728Z,1011
2018-06-02T09:51:34.701Z,1011.05
2018-06-02T10:01:34.740Z,1011.07
2018-06-02T10:11:34.720Z,1011.06
2018-06-02T10:21:34.721Z,1011.09
2018-06-02T10:31:34.739Z,1011.1
2018-06-02T10:41:36.768Z,1011.07
2018-06-02T10:51:34.768Z,1011.09
2018-06-02T11:01:34.740Z,1011.12
2018-06-02T11:11:34.692Z,1011.09
2018-06-02T11:21:34.741Z,1011.15
2018-06-02T11:31:34.814Z,1011.24
2018-06-02T11:41:34.764Z,1011.13
2018-06-02T11:51:34.727Z,1011.13
2018-06-02T12:01:34.791Z,1011.1
2018-06-02T12:11:34.748Z,1011.12
2018-06-02T12:21:34.729Z,1011.16
2018-06-02T12:31:34.764Z,1011.17
2018-06-02T12:41:35.743Z,1011.16
2018-06-02T12:51:34.697Z,1011.18
2018-06-02T13:01:34.687Z,1011.13
2018-06-02T13:11:34.722Z,1011.13
2018-06-02T13:21:34.798Z,1011.16
2018-06-02T13:31:35.000Z,1011.1
2018-06-02T13:41:34.840Z,1010.99
2018-06-02T13:51:34.763Z,1010.9
2018-06-02T14:01:34.884Z,1010.93
2018-06-02T14:11:34.787Z,1010.89
2018-06-02T14:21:34.782Z,1010.89
2018-06-02T14:31:34.837Z,1010.81
2018-06-02T14:41:34.784Z,1010.8
2018-06-02T14:51:34.847Z,1010.6
2018-06-02T15:01:34.802Z,1010.55
2018-06-02T15:11:34.765Z,1010.55
2018-06-02T15:21:35.310Z,1010.47
2018-06-02T15:31:34.771Z,1010.51
2018-06-02T15:41:34.845Z,1010.53
2018-06-02T15:51:34.841Z,1010.41
2018-06-02T16:01:34.873Z,1010.41
2018-06-02T16:11:34.852Z,1010.4
2018-06-02T16:21:34.815Z,1010.35
2018-06-02T16:31:34.755Z,1010.36
2018-06-02T16:41:34.860Z,1010.38
2018-06-02T16:51:34.805Z,1010.42
2018-06-02T17:01:34.748Z,1010.45
2018-06-02T17:11:35.840Z,1010.47
2018-06-02T17:21:36.835Z,1010.42
2018-06-02T17:31:34.857Z,1010.45
2018-06-02T17:41:34.806Z,1010.43
2018-06-02T17:51:35.822Z,1010.53
2018-06-02T18:01:38.394Z,1010.58
2018-06-02T18:11:35.826Z,1010.6
2018-06-02T18:21:34.842Z,1010.58
2018-06-02T18:31:34.812Z,1010.56
2018-06-02T18:41:34.761Z,1010.53
2018-06-02T18:51:34.841Z,1010.53
2018-06-02T19:01:34.793Z,1010.63
2018-06-02T19:11:34.855Z,1010.65
2018-06-02T19:21:35.836Z,1010.68
2018-06-02T19:31:34.784Z,1010.82
2018-06-02T19:41:34.845Z,1010.89
2018-06-02T19:51:35.826Z,1011.04
2018-06-02T20:01:34.855Z,1011.14
2018-06-02T20:11:36.865Z,1011.19
2018-06-02T20:21:35.852Z,1011.18
2018-06-02T20:31:34.871Z,1011.26
2018-06-02T20:41:39.110Z,1011.32
2018-06-02T20:51:35.788Z,1011.38
2018-06-02T21:01:34.845Z,1011.38
2018-06-02T21:11:35.849Z,1011.48
2018-06-02T21:21:34.864Z,1011.47
2018-06-02T21:31:34.824Z,1011.51
2018-06-02T21:41:39.731Z,1011.59
2018-06-02T21:51:35.887Z,1011.63
2018-06-02T22:01:37.972Z,1011.66
2018-06-02T22:11:40.505Z,1011.66
2018-06-02T22:21:34.836Z,1011.69
2018-06-02T22:31:34.868Z,1011.64
2018-06-02T22:41:35.847Z,1011.75
2018-06-02T22:51:34.801Z,1011.67
2018-06-02T23:01:34.879Z,1011.74
2018-06-02T23:11:34.837Z,1011.86
2018-06-02T23:21:35.177Z,1011.83
2018-06-02T23:31:34.845Z,1011.82
2018-06-02T23:41:34.789Z,1011.79
2018-06-02T23:51:34.865Z,1011.84
